• Join FlightAware (Why Join?)
  • Login
  • US Flag 
05:39PM EDT


 

Airport Tracker/Info


-or-


 

Live Flight TrackerFlight Track Log ✈ TAM9377 ✈ 28-Jul-2013 ✈ SBCT / CWB - SBBR / BSB

Flight Track Log - Related Links

Times and Time Zones

All times are in EDT time to prevent confusion due to time zone crossing. See the TAM9377 flight status page for this flight to view local times or setup timezone preferences in your user account.

Time Position Orientation Groundspeed Altitude Reporting Facility
EDT Latitude Longitude Course Direction KTS MPH feet Rate Location/Type
06:21PM -25.5340 -49.1720 16° North 19 22  Level FlightAware
06:22PM -25.5330 -49.1730 318° Northwest 25 29 480 Level FlightAware
06:22PM -25.5320 -49.1740 318° Northwest 30 35 480 Level FlightAware
06:22PM -25.5320 -49.1750 270° West 33 38 480 Level FlightAware
06:23PM -25.5300 -49.1760 336° Northwest 29 33 540 Level FlightAware
06:24PM -25.5300 -49.1780 270° West 13 15 600 Level FlightAware
06:24PM -25.5300 -49.1790 270° West 10 12 720 Level FlightAware
06:24PM -25.5280 -49.1800 336° Northwest 25 29 780 Level FlightAware
06:25PM -25.5270 -49.1800 360° North 26 30 840 Level FlightAware
06:25PM -25.5260 -49.1800 360° North 33 38 960 Level FlightAware
06:26PM -25.5240 -49.1810 336° Northwest 31 36 1,200 Level FlightAware
06:26PM -25.5230 -49.1820 318° Northwest 31 36 1,500 Level FlightAware
06:27PM -25.5220 -49.1830 318° Northwest 13 15 1,920 Level FlightAware
06:27PM -25.5250 -49.1800 138° Southeast 82 94 3,420 Level FlightAware
06:28PM -25.5360 -49.1670 133° Southeast 152 175 3,000 4,380 Climbing FlightAware
06:28PM -25.5520 -49.1560 148° Southeast 155 178 3,900 1,380 Climbing FlightAware
06:28PM -25.5720 -49.1670 206° Southwest 189 217 4,300 720 Climbing FlightAware
06:29PM -25.5960 -49.1820 209° Southwest 234 269 4,600 1,980 Climbing FlightAware
06:29PM -25.6220 -49.1980 209° Southwest 221 254 6,200 3,120 Climbing FlightAware
06:30PM -25.6400 -49.2200 228° Southwest 223 257 7,500 2,820 Climbing FlightAware
06:30PM -25.6420 -49.2310 259° West 228 262 7,900 2,460 Climbing FlightAware
06:30PM -25.6350 -49.2530 289° West 244 281 8,700 1,620 Climbing FlightAware
06:31PM -25.6150 -49.2760 314° West 278 320 9,100 1,800 Climbing FlightAware
06:31PM -25.5700 -49.3230 317° Northwest 300 345 10,800 1,740 Climbing FlightAware
06:32PM -25.5330 -49.3420 335° Northwest 349 402 11,200 1,020 Climbing FlightAware
06:33PM -25.4740 -49.3390 North 385 443 11,900 1,680 Climbing FlightAware
06:33PM -25.4000 -49.3320 North 393 452 13,400 2,160 Climbing FlightAware
06:34PM -25.3180 -49.3260 North 401 461 15,000 1,800 Climbing FlightAware
06:35PM -25.2440 -49.3210 North 414 476 16,000 1,680 Climbing FlightAware
06:35PM -25.1570 -49.3140 North 420 483 17,400 1,560 Climbing FlightAware
06:36PM -25.0780 -49.3080 North 435 501 18,200 1,380 Climbing FlightAware
06:37PM -24.9900 -49.3020 North 441 507 19,400 1,680 Climbing FlightAware
06:37PM -24.9250 -49.2970 North 441 507 20,400 1,560 Climbing FlightAware
06:38PM -24.8430 -49.2910 North 449 517 21,300 1,440 Climbing FlightAware
06:39PM -24.7540 -49.2840 North 452 520 22,400 1,560 Climbing FlightAware
06:39PM -24.6780 -49.2780 North 455 524 23,400 1,440 Climbing FlightAware
06:40PM -24.5900 -49.2720 North 461 531 24,300 1,260 Climbing FlightAware
06:41PM -24.4940 -49.2650 North 468 539 25,200 1,080 Climbing FlightAware
06:41PM -24.4070 -49.2580 North 475 547 25,900 1,080 Climbing FlightAware
06:42PM -24.3100 -49.2510 North 478 550 26,800 1,260 Climbing FlightAware
06:43PM -24.2180 -49.2450 North 476 548 27,700 1,140 Climbing FlightAware
06:43PM -24.1240 -49.2380 North 483 556 28,400 960 Climbing FlightAware
06:44PM -24.0440 -49.2320 North 486 559 29,000 1,020 Climbing FlightAware
06:45PM -23.9530 -49.2250 North 487 560 29,700 960 Climbing FlightAware
06:45PM -23.8540 -49.2180 North 489 563 30,400 780 Climbing FlightAware
06:46PM -23.7720 -49.2120 North 496 571 30,800 780 Climbing FlightAware
06:47PM -23.6740 -49.2050 North 498 573 31,400 1,200 Climbing FlightAware
06:47PM -23.5840 -49.1990 North 489 563 32,400 1,080 Climbing FlightAware
06:48PM -23.4990 -49.1920 North 492 566 32,900 900 Climbing FlightAware
06:49PM -23.4160 -49.1860 North 487 560 33,600 1,080 Climbing FlightAware
06:49PM -23.3190 -49.1790 North 483 556 34,400 960 Climbing FlightAware
06:50PM -23.2230 -49.1720 North 483 556 35,000 420 Climbing FlightAware
06:51PM -23.1270 -49.1650 North 480 552 35,000  Level FlightAware
06:52PM -23.0270 -49.1580 North 481 554 35,000  Level FlightAware
06:52PM -22.9380 -49.1520 North 485 558 35,000  Level FlightAware
06:53PM -22.8430 -49.1450 North 487 560 35,000  Level FlightAware
06:53PM -22.7700 -49.1400 North 488 562 35,000  Level FlightAware
06:54PM -22.6710 -49.1330 North 488 562 35,000  Level FlightAware
06:55PM -22.5800 -49.1260 North 487 560 35,000  Level FlightAware
06:56PM -22.4770 -49.1190 North 487 560 35,000  Level FlightAware
06:56PM -22.3840 -49.1120 North 486 559 35,000  Level FlightAware
06:57PM -22.2940 -49.1040 North 488 562 35,000  Level FlightAware
06:58PM -22.1960 -49.0870 North 488 562 35,000  Level FlightAware
06:58PM -22.1270 -49.0750 North 487 560 35,000  Level FlightAware
06:59PM -22.0260 -49.0570 North 486 559 35,000  Level FlightAware
07:00PM -21.9360 -49.0410 North 484 557 35,000  Level FlightAware
07:00PM -21.8570 -49.0250 11° North 486 559 35,000  Level FlightAware
07:01PM -21.7770 -49.0070 12° North 485 558 35,000  Level FlightAware
07:02PM -21.6710 -48.9830 12° North 485 558 35,000 240 Level FlightAware
07:02PM -21.5880 -48.9690 North 481 554 35,400 660 Climbing FlightAware
07:03PM -21.5010 -48.9550 North 482 555 35,900 600 Climbing FlightAware
07:04PM -21.4120 -48.9400 North 485 558 36,200 480 Climbing FlightAware
07:04PM -21.3120 -48.9240 North 489 563 36,600 360 Climbing FlightAware
07:05PM -21.2400 -48.9130 North 492 566 36,700 240 Climbing FlightAware
07:06PM -21.1190 -48.8930 North 497 572 37,000 180 Climbing FlightAware
07:06PM -21.0270 -48.8790 North 496 571 37,000  Level FlightAware
07:07PM -20.9470 -48.8660 North 497 572 37,000  Level FlightAware
07:08PM -20.8490 -48.8500 North 493 567 37,000  Level FlightAware
07:08PM -20.7590 -48.8360 North 490 564 37,000  Level FlightAware
07:09PM -20.6680 -48.8210 North 488 562 37,000  Level FlightAware
07:10PM -20.5840 -48.8070 North 489 563 37,000  Level FlightAware
07:10PM -20.4950 -48.7920 North 491 565 37,000  Level FlightAware
07:11PM -20.4020 -48.7760 North 493 567 37,000  Level FlightAware
07:12PM -20.3140 -48.7630 North 491 565 37,000  Level FlightAware
07:13PM -20.2030 -48.7570 North 490 564 37,000  Level FlightAware
07:13PM -20.1180 -48.7530 North 491 565 37,000  Level FlightAware
07:14PM -20.0170 -48.7490 North 491 565 37,000  Level FlightAware
07:14PM -19.9470 -48.7460 North 491 565 37,000  Level FlightAware
07:15PM -19.8460 -48.7410 North 490 564 37,000  Level FlightAware
07:16PM -19.7460 -48.7370 North 491 565 37,000  Level FlightAware
07:16PM -19.6650 -48.7290 North 495 570 37,000  Level FlightAware
07:17PM -19.5690 -48.7160 North 495 570 37,000  Level FlightAware
07:18PM -19.4720 -48.7040 North 494 568 37,000  Level FlightAware
07:19PM -19.3770 -48.6920 North 494 568 37,000  Level FlightAware
07:19PM -19.2910 -48.6810 North 494 568 37,000  Level FlightAware
07:20PM -19.1880 -48.6680 North 495 570 37,000  Level FlightAware
07:21PM -19.0850 -48.6550 North 496 571 37,000  Level FlightAware
07:21PM -19.0140 -48.6470 North 495 570 37,000  Level FlightAware
07:22PM -18.9110 -48.6390 North 495 570 37,000  Level FlightAware
07:23PM -18.8180 -48.6310 North 494 568 37,000  Level FlightAware
07:23PM -18.7360 -48.6240 North 494 568 37,000  Level FlightAware
07:24PM -18.6440 -48.6160 North 494 568 37,000  Level FlightAware
07:25PM -18.5440 -48.6070 North 493 567 37,000  Level FlightAware
07:25PM -18.4510 -48.5990 North 490 564 37,000  Level FlightAware
07:26PM -18.3520 -48.5900 North 486 559 37,000  Level FlightAware
07:27PM -18.2620 -48.5820 North 481 554 37,000  Level FlightAware
07:27PM -18.1670 -48.5740 North 478 550 37,000  Level FlightAware
07:28PM -18.0820 -48.5660 North 476 548 37,000  Level FlightAware
07:29PM -17.9990 -48.5590 North 476 548 37,000  Level FlightAware
07:29PM -17.9020 -48.5490 North 479 551 37,000 -360 Level FlightAware
07:30PM -17.8150 -48.5370 North 486 559 36,500 -1,680 Descending FlightAware
07:31PM -17.7150 -48.5240 North 480 552 34,700 -2,400 Descending FlightAware
07:32PM -17.6290 -48.5130 North 474 545 33,100 -2,400 Descending FlightAware
07:32PM -17.5300 -48.5000 North 487 560 31,400 -2,280 Descending FlightAware
07:33PM -17.4200 -48.4870 North 474 545 29,500 -2,340 Descending FlightAware
07:34PM -17.2890 -48.4700 North 465 535 27,100 -2,340 Descending FlightAware
07:35PM -17.2170 -48.4610 North 458 527 25,900 -2,220 Descending FlightAware
07:35PM -17.1230 -48.4490 North 448 516 24,200 -2,280 Descending FlightAware
07:36PM -17.0440 -48.4390 North 439 505 22,700 -1,920 Descending FlightAware
07:37PM -16.9550 -48.4220 10° North 437 503 21,500 -1,680 Descending FlightAware
07:38PM -16.8520 -48.3920 16° North 427 491 20,000 -1,920 Descending FlightAware
07:38PM -16.7660 -48.3670 16° North 418 481 18,400 -1,800 Descending FlightAware
07:39PM -16.6890 -48.3450 15° North 415 478 17,500 -1,680 Descending FlightAware
07:40PM -16.6040 -48.3200 16° North 410 472 16,100 -1,980 Descending FlightAware
07:40PM -16.5430 -48.3020 16° North 407 468 14,900 -2,040 Descending FlightAware
07:41PM -16.4700 -48.2810 15° North 393 452 13,600 -1,980 Descending FlightAware
07:42PM -16.3920 -48.2580 16° North 373 429 12,100 -2,100 Descending FlightAware
07:42PM -16.3340 -48.2420 15° North 364 419 10,800 -1,620 Descending FlightAware
07:43PM -16.2740 -48.2240 16° North 323 372 10,100 -780 Descending FlightAware
07:44PM -16.2330 -48.2120 16° North 292 336 9,900 -780 Descending FlightAware
07:44PM -16.2000 -48.2030 15° North 290 334 9,400 -1,320 Descending FlightAware
07:45PM -16.1610 -48.1920 15° North 288 331 8,700 -1,320 Descending FlightAware
07:45PM -16.1220 -48.1810 15° North 292 336 8,100 -1,320 Descending FlightAware
07:46PM -16.0830 -48.1690 16° North 294 338 7,400 -1,200 Descending FlightAware
07:46PM -16.0490 -48.1590 16° North 296 341 7,000 -1,080 Descending FlightAware
07:46PM -16.0300 -48.1540 14° North 295 339 6,700 -900 Descending FlightAware
07:47PM -15.9970 -48.1440 16° North 289 333 6,400 -600 Descending FlightAware
07:47PM -15.9660 -48.1350 16° North 270 311 6,200 -360 Descending FlightAware
07:47PM -15.9380 -48.1270 15° North 251 289 6,100 -120 Descending FlightAware
07:48PM -15.9110 -48.1180 18° North 228 262 6,100  Level FlightAware
07:48PM -15.8960 -48.1050 40° Northeast 217 250 6,100 -240 Level FlightAware
07:48PM -15.8920 -48.0960 65° Northeast 208 239 6,000 -720 Descending FlightAware
07:49PM -15.8900 -48.0810 82° East 202 232 5,800 -900 Descending FlightAware
07:49PM -15.8880 -48.0580 85° East 186 214 5,400 -960 Descending FlightAware
07:49PM -15.8870 -48.0370 87° East 168 193 5,000 -900 Descending FlightAware
07:50PM -15.8860 -48.0290 83° East 156 180 4,900 -840 Descending FlightAware
07:50PM -15.8850 -48.0040 88° East 144 166 4,400 -840 Descending FlightAware
07:51PM -15.8840 -47.9870 87° East 142 163 4,100 -780 Descending FlightAware
07:51PM -15.8830 -47.9770 84° East 144 166 3,900 -720 Descending FlightAware
07:51PM -15.8820 -47.9630 86° East 143 165 3,700 -720 Descending FlightAware
07:52PM -15.8810 -47.9460 87° East 143 165 3,400 -600 Descending FlightAware
07:52PM -15.8800 -47.9320 86° East 137 158 3,200 -120 Descending FlightAware
07:53PM -15.8780 -47.9170 82° East 137 158 3,200  Level FlightAware
07:54PM -15.8770 -47.9030 86° East 137 158 3,200  Level FlightAware
07:55PM -15.8750 -47.9160 279° West 137 158 3,200  Level FlightAware
07:55PM -15.8750 -47.9020 90° East 137 158 3,200  Level FlightAware
07:56PM -15.8720 -47.9010 18° North 137 158 3,200  Level FlightAware
08:00PM -15.8680 -47.9270 270° West 137 158 3,200  Level FlightAware
08:01PM -15.8680 -47.9290 270° West 137 158 3,200  Level FlightAware
08:01PM -15.8670 -47.9140 86° East 137 158 3,200  Level FlightAware